Impacts TAF Board INFO
FOR SITUATIONAL AWARENESS. NOT TO BE USED FOR FLIGHT PLANNING PURPOSES.
IDs:

KMSP - Minneapolis-St Paul, MN, US

Issued at 0520 UTC 16 Jan 2018
Updated at 0721 UTC 16 Jan 2018
Potential Impact None Slight Moderate High
Time0709Z 16/08Z 16/09Z 16/10Z 16/11Z 16/12Z 16/13Z 16/14Z 16/15Z 16/16Z 16/17Z 16/18Z 16/19Z 16/20Z>>
Type OBS PRVL PRVL PRVL PRVL PRVL PRVL PRVL PRVL PRVL PRVL PRVL PRVL PRVL
VIS 10 >6 >6 >6 >6 >6 >6 >6 >6 >6 >6 >6 >6 >6
CIG 30 50 50 50 50 50 50 50 50 -- -- -- -- --
Cover BKN BKN BKN BKN BKN BKN BKN BKN BKN FEW FEW FEW FEW FEW
FltCat MVFR VFR VFR VFR VFR VFR VFR VFR VFR VFR VFR VFR VFR VFR
WX -- -- -- -- -- -- -- -- -- -- -- -- -- --
WDir 320 320 320 320 320 320 320 320 320 300 300 300 300 300
WSpd 8 12 12 12 12 12 12 12 12 7 7 7 7 7
WGst -- -- -- -- -- -- -- -- -- -- -- -- -- --

Raw TAF
KMSP 160520Z 1606/1712 32012KT P6SM SCT018 BKN050
  FM161600 30007KT P6SM FEW018
  FM170000 24004KT P6SM SCT100


Raw METAR
KMSP 160709Z 32008KT 10SM BKN030 M18/M20 A3059 RMK AO2 T11781200
KMSP 160700Z 32011KT 10SM BKN029 M18/M20 A3059 RMK AO2 T11781200
KMSP 160653Z 32009KT 10SM SCT029 M18/M20 A3059 RMK AO2 SLP382 T11781200
KMSP 160553Z 32008KT 10SM SCT050 M17/M19 A3058 RMK AO2 SLP380 4/005 60000 T11671194 11161 21172 411001172 51013
KMSP 160543Z 32010KT 10SM SCT016 M17/M20 A3058 RMK AO2 T11721200
KMSP 160500Z 32011KT 10SM BKN018 M17/M20 A3057 RMK AO2 T11721200
KMSP 160453Z 31010KT 10SM FEW024 M17/M20 A3058 RMK AO2 SLP379 T11721200

METAR Board
Radar Display
Forecast Discussion

FOR SITUATIONAL AWARENESS. NOT TO BE USED FOR FLIGHT PLANNING PURPOSES.